Time;durP1;ratioP1;P1;durP2;ratioP2;P2;SDS_P1;SDS_P2;PMS_P1;PMS_P2;Temp;Humidity;BMP_temperature;BMP_pressure;BME280_temperature;BME280_humidity;BME280_pressure;Samples;Min_cycle;Max_cycle;Signal;HPM_P1;HPM_P2
2022/12/27 00:00:37;;;;;;;45.75;21.23;;;;;;;4.36;71.99;100593.44;3157313;28;20051;-69
2022/12/27 00:02:08;;;;;;;;;;;;;;;4.24;72.09;100590.09;3157957;28;20109;-70
2022/12/27 00:03:40;;;;;;;52.05;19.65;;;;;;;4.18;72.46;100589.28;3152673;28;20421;-69
2022/12/27 00:05:14;;;;;;;46.53;20.10;;;;;;;4.14;72.62;100587.56;3157490;28;20503;-69
2022/12/27 00:06:46;;;;;;;39.00;18.70;;;;;;;4.09;72.89;100585.03;3157300;28;20447;-69
2022/12/27 00:08:18;;;;;;;43.13;19.85;;;;;;;4.05;73.13;100575.59;3157410;28;20052;-69
2022/12/27 00:09:50;;;;;;;41.80;19.95;;;;;;;4.05;73.01;100580.75;3148949;28;20044;-68
2022/12/27 00:11:25;;;;;;;46.70;20.23;;;;;;;3.79;73.12;100543.13;3157760;28;20043;-68
2022/12/27 00:12:57;;;;;;;45.88;20.83;;;;;;;3.98;73.45;100567.03;3132787;28;20092;-68
2022/12/27 00:14:28;;;;;;;42.58;19.83;;;;;;;4.02;73.34;100576.50;3156599;28;20052;-68
2022/12/27 00:16:05;;;;;;;48.90;20.23;;;;;;;4.02;73.23;100581.63;3155040;28;20056;-68
2022/12/27 00:17:36;;;;;;;44.05;19.70;;;;;;;4.00;73.43;100579.94;3153897;28;20532;-68
2022/12/27 00:19:07;;;;;;;38.60;18.45;;;;;;;3.97;73.23;100573.06;3150373;28;20041;-68
2022/12/27 00:20:39;;;;;;;43.70;19.42;;;;;;;3.98;73.20;100567.03;3153875;28;20044;-68
2022/12/27 00:22:10;;;;;;;43.38;19.15;;;;;;;3.98;73.31;100569.63;3157312;28;20508;-68
2022/12/27 00:23:44;;;;;;;44.80;19.00;;;;;;;4.05;73.25;100578.16;3157495;28;20063;-69
2022/12/27 00:25:15;;;;;;;42.63;18.38;;;;;;;4.01;73.25;100568.75;3157187;28;20052;-69
2022/12/27 00:26:47;;;;;;;43.70;19.27;;;;;;;4.07;73.08;100572.13;3157449;28;20137;-68
2022/12/27 00:28:19;;;;;;;40.22;19.83;;;;;;;4.09;72.84;100567.84;3157080;28;20483;-68
2022/12/27 00:29:51;;;;;;;40.10;18.00;;;;;;;4.10;72.83;100571.25;3157509;28;20121;-68
2022/12/27 00:31:27;;;;;;;39.03;18.02;;;;;;;4.11;72.75;100565.22;3156751;28;20044;-69
2022/12/27 00:32:59;;;;;;;42.15;18.30;;;;;;;4.12;72.80;100566.13;3152840;28;20101;-69
2022/12/27 00:34:30;;;;;;;46.55;18.38;;;;;;;4.10;72.65;100558.38;3156934;28;20051;-69
2022/12/27 00:36:03;;;;;;;38.10;18.42;;;;;;;4.09;72.82;100559.25;3157131;28;20060;-68
2022/12/27 00:37:35;;;;;;;45.60;20.25;;;;;;;4.05;72.83;100566.16;3157105;28;20084;-69
2022/12/27 00:39:07;;;;;;;40.92;19.30;;;;;;;3.07;72.76;100406.16;3157011;28;20409;-68
2022/12/27 00:40:38;;;;;;;43.03;18.13;;;;;;;4.04;72.87;100567.00;3157234;28;20052;-68
2022/12/27 00:42:10;;;;;;;44.30;18.65;;;;;;;4.05;72.71;100560.13;3157338;28;20052;-67
2022/12/27 00:43:42;;;;;;;46.35;19.17;;;;;;;4.06;72.69;100554.97;3154768;28;20056;-68
2022/12/27 00:45:14;;;;;;;41.60;17.52;;;;;;;4.04;72.69;100542.97;3155922;28;20113;-69
2022/12/27 00:46:46;;;;;;;40.30;19.10;;;;;;;4.06;72.72;100543.81;3155183;28;20063;-69
2022/12/27 00:48:18;;;;;;;41.15;18.35;;;;;;;4.04;72.76;100545.53;3144961;28;20088;-68
2022/12/27 00:49:50;;;;;;;40.35;18.60;;;;;;;4.01;72.77;100536.09;3154735;28;20504;-69
2022/12/27 00:51:22;;;;;;;39.22;17.40;;;;;;;4.07;72.61;100545.50;3152170;28;20135;-68
2022/12/27 00:52:54;;;;;;;34.72;17.00;;;;;;;4.09;72.52;100543.78;3153067;28;20576;-69
2022/12/27 00:54:26;;;;;;;42.60;17.85;;;;;;;4.06;72.47;100529.19;3157073;28;20051;-69
2022/12/27 00:55:57;;;;;;;38.58;17.63;;;;;;;3.28;72.33;100416.31;3152695;28;20055;-69
2022/12/27 00:57:29;;;;;;;45.15;19.23;;;;;;;4.02;72.43;100524.94;3153740;28;20044;-68
2022/12/27 00:59:03;;;;;;;42.45;19.20;;;;;;;4.11;72.36;100536.88;3155501;28;20385;-68
2022/12/27 01:00:34;;;;;;;45.30;19.40;;;;;;;4.08;72.40;100537.78;3156987;28;20051;-69
2022/12/27 01:02:07;;;;;;;40.80;18.42;;;;;;;4.05;72.53;100537.81;3152542;28;20109;-69
2022/12/27 01:03:40;;;;;;;38.38;17.08;;;;;;;4.02;72.64;100547.25;3157070;28;20066;-69
2022/12/27 01:05:12;;;;;;;35.58;17.30;;;;;;;3.96;72.61;100532.69;3157167;28;20040;-69
2022/12/27 01:06:43;;;;;;;40.07;18.13;;;;;;;3.98;72.79;100530.13;3157104;28;20052;-69
2022/12/27 01:08:15;;;;;;;39.67;17.00;;;;;;;3.95;72.80;100530.97;3157024;28;20059;-69
2022/12/27 01:09:46;;;;;;;40.28;17.38;;;;;;;3.95;72.81;100530.97;3157310;28;20440;-69
2022/12/27 01:11:18;;;;;;;36.08;17.00;;;;;;;3.92;72.74;100532.72;3157064;28;20052;-69
2022/12/27 01:12:50;;;;;;;37.80;17.30;;;;;;;3.93;72.70;100537.84;3157381;28;20661;-69
2022/12/27 01:14:22;;;;;;;40.35;17.80;;;;;;;3.89;72.92;100543.91;3156613;28;20056;-68
2022/12/27 01:15:53;;;;;;;36.65;17.77;;;;;;;3.84;72.63;100538.75;3154896;28;20048;-69
2022/12/27 01:17:28;;;;;;;37.53;17.17;;;;;;;3.96;72.78;100549.88;3154887;28;20052;-69
2022/12/27 01:19:01;;;;;;;41.60;16.95;;;;;;;3.93;72.67;100547.31;3153302;28;20048;-69
2022/12/27 01:20:32;;;;;;;35.95;17.10;;;;;;;3.98;72.55;100550.72;3153483;28;20040;-69
2022/12/27 01:22:05;;;;;;;37.63;17.45;;;;;;;3.99;72.38;100545.53;3157202;28;20644;-69
2022/12/27 01:23:37;;;;;;;39.08;17.63;;;;;;;3.96;72.40;100537.84;3156775;28;20100;-69
2022/12/27 01:25:09;;;;;;;36.95;17.35;;;;;;;4.02;72.33;100544.69;3156617;28;20481;-69
2022/12/27 01:26:41;;;;;;;35.20;15.93;;;;;;;4.02;72.43;100548.13;3156729;28;20097;-69
2022/12/27 01:28:13;;;;;;;36.70;16.00;;;;;;;4.01;72.21;100540.41;3156837;28;20075;-69
2022/12/27 01:29:45;;;;;;;34.55;15.27;;;;;;;4.04;72.34;100530.06;3156790;28;20059;-69
2022/12/27 01:31:18;;;;;;;34.47;16.70;;;;;;;4.02;72.38;100542.09;3152389;28;20446;-69
2022/12/27 01:32:51;;;;;;;33.67;16.10;;;;;;;4.01;72.36;100528.38;3156672;28;20465;-68
2022/12/27 01:34:23;;;;;;;;;;;;;;;3.93;72.38;100537.00;3157284;28;20040;-68
2022/12/27 01:35:54;;;;;;;38.65;17.33;;;;;;;3.86;72.51;100531.91;3156662;28;20652;-68
2022/12/27 01:37:27;;;;;;;39.30;17.30;;;;;;;3.91;72.55;100529.31;3156734;28;20143;-69
2022/12/27 01:39:00;;;;;;;37.55;16.83;;;;;;;3.92;72.54;100525.00;3156656;28;20055;-68
2022/12/27 01:40:32;;;;;;;37.75;16.83;;;;;;;3.92;72.41;100527.56;3149147;28;20120;-67
2022/12/27 01:43:52;;;;;;;35.03;14.93;;;;;;;3.86;72.61;100524.16;3152152;28;20075;-68
2022/12/27 01:45:25;;;;;;;35.35;16.65;;;;;;;3.83;72.78;100521.59;3152077;28;20048;-68
2022/12/27 01:46:56;;;;;;;36.42;17.20;;;;;;;3.76;72.88;100503.63;3156996;28;20059;-69
2022/12/27 01:48:29;;;;;;;37.25;17.92;;;;;;;3.83;72.79;100520.75;3156747;28;20079;-69
2022/12/27 01:50:08;;;;;;;37.55;15.70;;;;;;;3.78;72.68;100515.63;3156605;28;20397;-69
2022/12/27 01:51:40;;;;;;;30.55;15.25;;;;;;;3.78;72.70;100513.03;3149296;28;20049;-68
2022/12/27 01:53:15;;;;;;;34.85;15.57;;;;;;;3.84;72.69;100518.16;3155320;28;20051;-69
2022/12/27 01:54:46;;;;;;;35.50;16.48;;;;;;;3.84;72.68;100509.56;3156473;28;20505;-69
2022/12/27 01:56:24;;;;;;;36.22;15.63;;;;;;;3.80;72.69;100501.00;3156635;28;20192;-69
2022/12/27 01:58:00;;;;;;;32.42;16.55;;;;;;;3.78;72.79;100497.59;3154322;28;20080;-68
2022/12/27 01:59:33;;;;;;;30.75;14.48;;;;;;;3.83;72.80;100510.44;3157136;28;20216;-69
2022/12/27 02:01:09;;;;;;;35.70;15.73;;;;;;;3.82;72.75;100507.03;3155939;28;20542;-69
2022/12/27 02:02:40;;;;;;;46.92;16.13;;;;;;;3.85;72.78;100501.00;3158938;28;20055;-69
2022/12/27 02:04:16;;;;;;;35.78;15.70;;;;;;;3.86;72.62;100506.13;3158974;28;20196;-69
2022/12/27 02:05:49;;;;;;;34.92;16.63;;;;;;;3.86;72.66;100519.00;3159297;28;20138;-69
2022/12/27 02:07:26;;;;;;;41.97;15.70;;;;;;;3.83;72.67;100500.16;3159122;28;20528;-72
2022/12/27 02:09:06;;;;;;;32.03;15.10;;;;;;;3.89;72.40;100510.41;3159266;28;20044;-69
2022/12/27 02:10:37;;;;;;;36.55;15.38;;;;;;;3.90;72.43;100499.22;3150681;28;20151;-70
2022/12/27 02:12:10;;;;;;;31.25;15.60;;;;;;;3.91;72.23;100506.13;3153725;28;20048;-71
2022/12/27 02:13:46;;;;;;;39.38;15.50;;;;;;;3.87;72.17;100497.56;3158675;28;20044;-68
2022/12/27 02:15:18;;;;;;;35.08;15.57;;;;;;;3.77;72.24;100474.44;3154093;28;20040;-68
2022/12/27 02:16:50;;;;;;;33.35;14.93;;;;;;;3.92;72.11;100506.97;3155286;28;20059;-68
2022/12/27 02:18:22;;;;;;;35.83;16.02;;;;;;;3.91;72.08;100498.38;3159206;28;20047;-67
2022/12/27 02:20:03;;;;;;;30.45;15.20;;;;;;;3.93;72.18;100501.78;3147143;28;20110;-68
2022/12/27 02:22:03;;;;;;;34.85;15.80;;;;;;;3.91;72.09;100487.22;3142856;28;20145;-70
2022/12/27 02:24:13;;;;;;;33.53;16.05;;;;;;;3.85;72.15;100494.13;3158357;28;20067;-68
2022/12/27 02:26:16;;;;;;;36.75;16.08;;;;;;;3.84;72.24;100492.38;3158318;28;20051;-68
2022/12/27 02:28:12;;;;;;;37.95;16.63;;;;;;;3.78;72.23;100487.28;3138178;28;20053;-68
2022/12/27 02:30:03;;;;;;;36.83;16.42;;;;;;;3.72;72.36;100489.03;3153938;28;20070;-68
2022/12/27 02:31:40;;;;;;;38.17;16.42;;;;;;;3.75;72.33;100491.59;3158652;28;20052;-68
2022/12/27 02:33:18;;;;;;;35.85;17.10;;;;;;;3.81;72.40;100492.41;3158349;28;20063;-68
2022/12/27 02:35:00;;;;;;;35.08;16.20;;;;;;;3.77;72.34;100488.16;3158576;28;20120;-68
2022/12/27 02:36:34;;;;;;;36.42;16.88;;;;;;;3.41;72.17;100430.84;3158458;28;20492;-68
2022/12/27 02:38:11;;;;;;;36.88;16.95;;;;;;;3.67;72.30;100462.44;3158414;28;20130;-70
2022/12/27 02:39:47;;;;;;;38.97;16.17;;;;;;;3.85;72.18;100494.13;3156714;28;20134;-70
2022/12/27 02:53:28;;;;;;;33.13;15.35;;;;;;;3.69;72.56;100487.34;3157714;28;20048;-68
2022/12/27 02:55:28;;;;;;;34.35;15.38;;;;;;;3.70;72.49;100495.91;3158373;28;20384;-67
2022/12/27 02:57:11;;;;;;;33.17;16.63;;;;;;;3.69;72.53;100489.06;3125444;28;20131;-68
2022/12/27 02:58:56;;;;;;;35.42;16.30;;;;;;;3.71;72.39;100495.94;3153990;28;20123;-68
2022/12/27 03:04:50;;;;;;;36.35;15.70;;;;;;;3.52;72.67;100471.13;3158391;28;20052;-69
2022/12/27 03:06:55;;;;;;;31.85;15.77;;;;;;;3.61;72.74;100500.28;3133710;28;20453;-68
2022/12/27 03:08:33;;;;;;;31.75;15.18;;;;;;;3.58;72.85;100495.16;3139226;28;20048;-68
2022/12/27 03:16:25;;;;;;;37.33;15.70;;;;;;;3.54;73.17;100490.00;3154685;28;20052;-69
2022/12/27 03:18:05;;;;;;;31.75;15.25;;;;;;;3.49;73.10;100473.72;3157875;28;20454;-69
2022/12/27 03:25:29;;;;;;;35.03;16.52;;;;;;;3.56;73.04;100476.25;3158083;28;20044;-68
2022/12/27 03:27:05;;;;;;;35.50;15.90;;;;;;;3.60;72.98;100484.81;3157417;28;20151;-69
2022/12/27 03:34:34;;;;;;;32.15;15.38;;;;;;;3.64;72.72;100468.50;3136268;28;20052;-69
2022/12/27 03:38:04;;;;;;;34.58;16.17;;;;;;;3.55;72.84;100468.53;3146391;28;20549;-68
2022/12/27 03:39:40;;;;;;;34.40;15.52;;;;;;;3.50;72.96;100470.31;3157988;28;20059;-67
2022/12/27 03:43:10;;;;;;;33.10;15.07;;;;;;;3.45;73.25;100472.88;3149965;28;20079;-69
2022/12/27 03:44:42;;;;;;;28.35;14.77;;;;;;;3.41;73.32;100466.91;3154074;28;20533;-70
2022/12/27 03:46:32;;;;;;;33.90;15.27;;;;;;;3.22;73.30;100434.38;3157777;28;20048;-69
2022/12/27 03:48:05;;;;;;;32.75;15.80;;;;;;;3.36;73.54;100460.91;3158102;28;20055;-69
2022/12/27 03:49:44;;;;;;;33.67;15.68;;;;;;;3.31;73.58;100457.53;3157768;28;20116;-68
2022/12/27 03:51:20;;;;;;;35.55;15.90;;;;;;;3.19;73.65;100434.41;3157217;28;20453;-68
2022/12/27 03:52:56;;;;;;;36.72;15.45;;;;;;;2.93;73.57;100395.94;3157608;28;20055;-68
2022/12/27 03:54:31;;;;;;;37.42;16.27;;;;;;;3.36;73.61;100463.50;3157620;28;20421;-69
2022/12/27 03:56:03;;;;;;;32.65;15.70;;;;;;;3.34;73.67;100462.66;3157904;28;20048;-68
2022/12/27 03:57:35;;;;;;;29.35;14.88;;;;;;;3.32;73.82;100456.66;3152524;28;20527;-68
2022/12/27 03:59:07;;;;;;;34.45;15.43;;;;;;;3.24;73.91;100457.56;3156056;28;20501;-68
2022/12/27 04:00:39;;;;;;;33.28;15.85;;;;;;;3.22;73.93;100457.53;3157486;28;20094;-68
2022/12/27 04:02:11;;;;;;;36.85;15.98;;;;;;;3.30;74.00;100466.09;3157790;28;20051;-68
2022/12/27 04:03:45;;;;;;;32.63;15.97;;;;;;;3.33;73.73;100472.94;3157338;28;20052;-70
2022/12/27 04:05:16;;;;;;;;;;;;;;;3.28;73.69;100483.25;3157967;28;20040;-68
2022/12/27 04:06:48;;;;;;;33.33;15.18;;;;;;;3.29;73.66;100482.41;3157395;28;19934;-69
2022/12/27 04:35:45;;;;;;;32.70;13.57;;;;;;;2.91;74.22;100480.00;3135075;28;20052;-69
2022/12/27 04:37:19;;;;;;;31.92;14.65;;;;;;;2.89;74.34;100479.13;3157274;28;20602;-69
2022/12/27 04:38:51;;;;;;;35.55;15.43;;;;;;;2.88;74.30;100486.00;3157341;28;20048;-69
2022/12/27 04:55:12;;;;;;;36.00;16.75;;;;;;;2.84;74.22;100501.41;3152655;28;20056;-69
2022/12/27 04:56:42;;;;;;;37.00;15.07;;;;;;;2.80;74.39;100502.31;3135861;28;20048;-68
2022/12/27 04:58:14;;;;;;;36.67;16.38;;;;;;;2.77;74.58;100498.00;3156080;28;20056;-68
2022/12/27 05:03:25;;;;;;;30.80;15.60;;;;;;;2.67;74.87;100502.31;3156750;28;20562;-69
2022/12/27 05:04:57;;;;;;;31.80;15.57;;;;;;;2.67;74.62;100501.47;3157170;28;20050;-68
2022/12/27 05:06:30;;;;;;;35.53;15.32;;;;;;;2.69;74.75;100504.88;3156758;28;20124;-68
2022/12/27 05:13:59;;;;;;;31.88;13.05;;;;;;;2.69;74.69;100498.06;3156945;28;20058;-69
2022/12/27 05:15:30;;;;;;;38.25;13.48;;;;;;;2.69;74.80;100500.63;3157166;28;20093;-68
2022/12/27 05:17:02;;;;;;;29.45;13.43;;;;;;;2.71;74.76;100498.03;3153601;28;20051;-69
2022/12/27 05:18:33;;;;;;;30.70;13.30;;;;;;;2.54;74.78;100463.78;3152832;28;20228;-69
2022/12/27 05:20:06;;;;;;;29.67;13.85;;;;;;;2.73;74.74;100496.31;3156767;28;20476;-69
2022/12/27 05:25:33;;;;;;;30.77;12.93;;;;;;;2.70;74.94;100502.31;3157124;28;20063;-69
2022/12/27 05:25:37;;;;;;;28.42;12.25;;;;;;;2.66;74.91;100487.78;3150085;28;20032;-70
2022/12/27 05:27:09;;;;;;;26.95;11.82;;;;;;;2.66;75.04;100494.59;3156673;28;20139;-69
2022/12/27 05:28:40;;;;;;;29.85;11.93;;;;;;;2.64;75.12;100488.63;3153017;28;20074;-69
2022/12/27 05:30:11;;;;;;;26.33;12.18;;;;;;;2.62;75.15;100493.75;3153234;28;20048;-69
2022/12/27 05:31:43;;;;;;;23.05;12.05;;;;;;;2.63;75.31;100494.59;3157673;28;20048;-69
2022/12/27 05:33:14;;;;;;;26.38;12.13;;;;;;;2.63;75.35;100489.47;3159031;28;20403;-68
2022/12/27 05:34:46;;;;;;;24.73;12.15;;;;;;;2.62;75.43;100492.91;3159200;28;20060;-69
2022/12/27 05:36:19;;;;;;;25.60;12.35;;;;;;;2.62;75.54;100493.75;3155487;28;20040;-69
2022/12/27 05:37:53;;;;;;;27.52;13.00;;;;;;;2.60;75.29;100484.31;3151391;28;20055;-69
2022/12/27 05:39:25;;;;;;;34.15;16.35;;;;;;;2.64;75.42;100496.34;3151016;28;20048;-69
2022/12/27 05:41:00;;;;;;;36.75;16.85;;;;;;;2.65;75.50;100495.47;3150238;28;20048;-69
2022/12/27 05:42:31;;;;;;;34.92;18.63;;;;;;;1.82;75.30;100373.06;3159366;28;20551;-69
2022/12/27 05:44:03;;;;;;;31.95;16.13;;;;;;;2.67;75.35;100496.34;3156020;28;20045;-69
2022/12/27 05:45:35;;;;;;;31.10;15.63;;;;;;;2.70;75.34;100497.19;3158860;28;20048;-68
2022/12/27 05:47:06;;;;;;;34.88;16.60;;;;;;;2.69;75.33;100495.47;3159481;28;20180;-69
2022/12/27 05:48:38;;;;;;;32.42;15.13;;;;;;;2.72;75.31;100507.44;3159470;28;20444;-69
2022/12/27 05:50:09;;;;;;;34.35;15.10;;;;;;;2.67;75.31;100491.19;3134489;28;20057;-69
2022/12/27 05:51:41;;;;;;;30.80;14.63;;;;;;;2.04;75.32;100389.31;3150238;28;20533;-69
2022/12/27 05:53:15;;;;;;;34.17;14.95;;;;;;;2.73;75.45;100501.47;3155314;28;20044;-68
2022/12/27 05:54:46;;;;;;;32.15;14.32;;;;;;;2.68;75.36;100491.19;3157269;28;20059;-69
2022/12/27 05:56:20;;;;;;;36.40;15.43;;;;;;;2.71;75.35;100486.03;3158994;28;20052;-69
2022/12/27 05:57:52;;;;;;;;;;;;;;;2.74;75.25;100495.44;3153361;28;20472;-69
2022/12/27 05:59:23;;;;;;;29.85;15.13;;;;;;;2.77;75.21;100502.31;3157513;28;19924;-69
2022/12/27 06:00:56;;;;;;;34.08;15.13;;;;;;;2.79;75.22;100496.31;3159002;28;20066;-70
2022/12/27 06:02:27;;;;;;;36.47;15.43;;;;;;;2.85;75.14;100508.31;3159202;28;20113;-69
2022/12/27 06:03:59;;;;;;;37.63;16.33;;;;;;;2.83;74.96;100503.16;3158901;28;20066;-69
2022/12/27 06:05:30;;;;;;;35.08;17.77;;;;;;;2.89;74.98;100504.84;3159000;28;20040;-70
2022/12/27 06:07:02;;;;;;;36.15;16.67;;;;;;;2.92;75.02;100510.84;3159218;28;20189;-69
2022/12/27 06:08:36;;;;;;;39.30;17.38;;;;;;;2.96;74.86;100515.13;3154995;28;20056;-70
2022/12/27 06:10:09;;;;;;;37.78;17.60;;;;;;;2.92;74.77;100495.41;3158869;28;20123;-69
2022/12/27 06:11:40;;;;;;;36.67;16.88;;;;;;;3.00;74.86;100508.25;3159100;28;20081;-69
2022/12/27 06:13:12;;;;;;;36.22;15.73;;;;;;;3.03;74.72;100508.25;3158921;28;20087;-70
2022/12/27 06:14:44;;;;;;;31.83;14.50;;;;;;;3.06;74.84;100513.38;3150925;28;20106;-69
2022/12/27 06:16:16;;;;;;;28.55;14.50;;;;;;;3.10;74.76;100504.78;3155759;28;20040;-68
2022/12/27 06:17:47;;;;;;;34.70;15.82;;;;;;;3.07;74.74;100493.66;3159772;28;20063;-68
2022/12/27 06:19:19;;;;;;;34.35;15.70;;;;;;;3.18;74.60;100508.19;3159534;28;20052;-69
2022/12/27 06:20:51;;;;;;;35.47;15.88;;;;;;;3.27;74.81;100512.44;3159155;28;20505;-68
2022/12/27 06:22:21;;;;;;;42.25;18.33;;;;;;;3.21;74.77;100480.75;3156260;28;20070;-68
2022/12/27 06:23:55;;;;;;;34.63;16.13;;;;;;;3.54;74.72;100510.59;3157086;28;20052;-69
2022/12/27 06:25:26;;;;;;;36.75;15.48;;;;;;;3.68;74.59;100513.97;3150607;28;20055;-68
2022/12/27 06:26:57;;;;;;;36.92;17.50;;;;;;;3.78;74.38;100501.88;3155117;28;20134;-69
2022/12/27 06:28:29;;;;;;;37.00;17.48;;;;;;;3.81;74.21;100476.94;3158839;28;20056;-68
2022/12/27 06:30:01;;;;;;;35.03;15.05;;;;;;;4.09;73.89;100513.72;3158444;28;20134;-68
2022/12/27 06:31:33;;;;;;;38.60;16.65;;;;;;;4.22;73.72;100516.19;3147236;28;20051;-68
2022/12/27 06:33:04;;;;;;;37.33;15.43;;;;;;;4.37;73.55;100523.78;3152254;28;20074;-68
2022/12/27 06:34:36;;;;;;;29.92;15.15;;;;;;;4.52;73.35;100526.25;3158449;28;20051;-68
2022/12/27 06:36:09;;;;;;;28.13;14.50;;;;;;;4.68;73.10;100521.81;3158108;28;20497;-68
2022/12/27 06:37:41;;;;;;;;;;;;;;;4.82;72.88;100523.38;3154513;28;20059;-67
2022/12/27 06:39:15;;;;;;;31.58;14.32;;;;;;;4.95;72.65;100525.00;3158135;28;19924;-68
2022/12/27 06:40:46;;;;;;;;;;;;;;;5.10;72.52;100519.66;3158947;28;20044;-68
2022/12/27 06:42:18;;;;;;;29.83;13.10;;;;;;;5.23;72.18;100513.50;3158241;28;19920;-68
2022/12/27 06:43:54;;;;;;;34.58;13.82;;;;;;;5.33;72.00;100501.31;3153423;28;20104;-68
2022/12/27 06:45:26;;;;;;;34.33;16.27;;;;;;;5.49;71.31;100504.53;3158325;28;20534;-67
2022/12/27 06:46:58;;;;;;;36.33;15.43;;;;;;;5.56;70.98;100505.31;3158729;28;20052;-68
2022/12/27 06:48:29;;;;;;;27.50;12.95;;;;;;;5.62;70.69;100500.94;3158139;28;20578;-68
2022/12/27 06:50:01;;;;;;;23.40;12.60;;;;;;;5.73;70.13;100500.78;3158296;28;20446;-67
2022/12/27 06:51:34;;;;;;;25.77;13.25;;;;;;;5.77;69.78;100488.66;3151900;28;20062;-67
2022/12/27 06:53:05;;;;;;;26.70;13.23;;;;;;;5.85;69.47;100494.56;3156294;28;20055;-68
2022/12/27 06:54:40;;;;;;;26.08;12.45;;;;;;;5.99;69.53;100489.25;3157718;28;20055;-68
2022/12/27 06:56:15;;;;;;;30.50;14.40;;;;;;;6.15;69.31;100496.75;3157759;28;20074;-68
2022/12/27 06:57:47;;;;;;;32.35;14.55;;;;;;;6.34;68.87;100504.19;3154911;28;20051;-68
2022/12/27 06:59:19;;;;;;;40.30;19.98;;;;;;;6.52;68.59;100501.28;3156713;28;20125;-68
2022/12/27 07:00:51;;;;;;;36.63;15.15;;;;;;;6.69;68.42;100492.38;3158142;28;20570;-68
2022/12/27 07:02:23;;;;;;;29.13;14.32;;;;;;;6.96;67.71;100501.38;3158157;28;20044;-68
2022/12/27 07:03:56;;;;;;;29.42;14.23;;;;;;;7.15;67.15;100501.84;3158504;28;20105;-68
2022/12/27 07:05:28;;;;;;;;;;;;;;;7.32;67.09;100502.38;3158190;28;20047;-67
2022/12/27 07:06:59;;;;;;;31.13;13.48;;;;;;;7.46;66.88;100500.34;3153884;28;19924;-67
2022/12/27 07:08:32;;;;;;;31.83;15.07;;;;;;;7.63;66.29;100486.16;3157729;28;20055;-70
2022/12/27 07:10:06;;;;;;;42.10;16.13;;;;;;;7.92;65.66;100488.94;3156046;28;20044;-68
2022/12/27 07:11:38;;;;;;;36.47;18.00;;;;;;;8.13;64.99;100484.16;3147987;28;20056;-67
2022/12/27 07:13:10;;;;;;;40.08;19.27;;;;;;;8.32;64.21;100485.41;3158161;28;20109;-68
2022/12/27 07:14:42;;;;;;;38.33;16.92;;;;;;;8.59;63.54;100483.88;3158070;28;20052;-69
2022/12/27 07:16:16;;;;;;;39.85;16.75;;;;;;;8.12;62.89;100356.19;3154458;28;20482;-69
2022/12/27 07:17:48;;;;;;;36.08;15.93;;;;;;;9.16;61.68;100469.34;3158118;28;20131;-69
2022/12/27 07:19:19;;;;;;;40.15;16.77;;;;;;;9.44;59.63;100482.41;3133450;28;20090;-69
2022/12/27 07:20:51;;;;;;;48.35;16.73;;;;;;;9.67;58.37;100481.72;3153704;28;20047;-69
2022/12/27 07:22:23;;;;;;;50.65;19.95;;;;;;;9.95;57.57;100478.25;3156058;28;20075;-69
2022/12/27 07:23:56;;;;;;;71.47;18.88;;;;;;;10.12;57.03;100467.31;3157631;28;20107;-69
2022/12/27 07:25:28;;;;;;;33.83;16.00;;;;;;;10.41;56.16;100467.22;3158195;28;20113;-71
2022/12/27 07:27:01;;;;;;;37.58;16.65;;;;;;;10.68;55.15;100473.22;3158009;28;20135;-69
2022/12/27 07:28:33;;;;;;;51.92;16.08;;;;;;;10.93;54.66;100478.41;3156497;28;20494;-69
2022/12/27 07:30:07;;;;;;;33.55;15.68;;;;;;;11.17;53.69;100478.44;3146757;28;20053;-68
2022/12/27 07:31:39;;;;;;;36.78;17.02;;;;;;;11.44;53.00;100481.75;3153043;28;20043;-69
2022/12/27 07:33:11;;;;;;;33.75;15.82;;;;;;;11.71;52.28;100477.28;3157597;28;20048;-69
2022/12/27 07:34:43;;;;;;;41.40;16.55;;;;;;;11.96;51.90;100474.56;3158202;28;20176;-69
2022/12/27 07:36:17;;;;;;;35.58;15.57;;;;;;;12.23;51.25;100475.19;3153204;28;20374;-69
2022/12/27 07:37:49;;;;;;;44.45;16.10;;;;;;;12.48;50.71;100477.66;3157971;28;20496;-69
2022/12/27 07:39:21;;;;;;;40.45;16.17;;;;;;;12.47;50.60;100456.81;3157890;28;20043;-69
2022/12/27 07:40:54;;;;;;;34.10;15.57;;;;;;;12.74;50.04;100481.75;3157729;28;20052;-69
2022/12/27 07:42:26;;;;;;;39.17;15.40;;;;;;;12.87;50.13;100479.47;3157781;28;20109;-69
2022/12/27 07:43:56;;;;;;;67.72;22.90;;;;;;;13.15;49.73;100481.69;3154342;28;20049;-69
2022/12/27 07:45:28;;;;;;;42.00;17.13;;;;;;;13.45;48.76;100491.69;3158070;28;20047;-69
2022/12/27 07:47:00;;;;;;;38.92;16.17;;;;;;;13.69;47.91;100474.00;3158187;28;20060;-70
2022/12/27 07:48:31;;;;;;;39.25;16.63;;;;;;;13.93;46.77;100473.75;3157960;28;20048;-69
2022/12/27 07:50:03;;;;;;;36.78;16.10;;;;;;;14.10;46.10;100465.94;3154763;28;20101;-68
2022/12/27 07:51:35;;;;;;;36.70;16.27;;;;;;;14.32;45.76;100465.72;3149689;28;20060;-69
2022/12/27 07:53:07;;;;;;;36.88;16.05;;;;;;;14.53;45.36;100471.69;3155495;28;20414;-69
2022/12/27 07:54:38;;;;;;;38.70;17.58;;;;;;;14.69;45.09;100463.88;3157074;28;20044;-68
2022/12/27 07:56:14;;;;;;;38.17;17.00;;;;;;;14.87;45.07;100468.16;3157539;28;20055;-68
2022/12/27 07:57:45;;;;;;;36.05;16.10;;;;;;;15.11;44.87;100481.75;3153746;28;20049;-69
2022/12/27 07:59:17;;;;;;;33.75;16.73;;;;;;;15.33;44.33;100478.84;3155974;28;20432;-68
2022/12/27 08:00:50;;;;;;;38.30;17.02;;;;;;;15.57;44.06;100476.66;3157219;28;20056;-69
2022/12/27 08:02:22;;;;;;;26.45;15.30;;;;;;;15.73;43.64;100467.97;3157721;28;20201;-69
2022/12/27 08:03:54;;;;;;;36.50;16.15;;;;;;;15.80;43.00;100470.16;3157683;28;20048;-69
2022/12/27 08:05:25;;;;;;;34.47;16.70;;;;;;;15.36;42.68;100413.06;3153096;28;20109;-69
2022/12/27 08:07:02;;;;;;;30.90;16.90;;;;;;;15.57;42.72;100476.66;3154335;28;20443;-69
2022/12/27 08:08:39;;;;;;;44.25;22.02;;;;;;;15.70;43.30;100471.59;3157740;28;20048;-70
2022/12/27 08:10:11;;;;;;;36.53;18.80;;;;;;;15.80;42.90;100475.41;3157409;28;20095;-69
2022/12/27 08:11:44;;;;;;;33.40;18.15;;;;;;;16.05;42.47;100479.28;3157651;28;20537;-69
2022/12/27 08:13:16;;;;;;;33.22;16.88;;;;;;;16.39;42.43;100475.56;3157808;28;20535;-69
2022/12/27 08:14:48;;;;;;;34.55;17.75;;;;;;;16.67;41.69;100469.50;3157289;28;20063;-69
2022/12/27 08:16:22;;;;;;;33.70;18.35;;;;;;;16.95;41.38;100467.88;3154033;28;20052;-69
2022/12/27 08:17:54;;;;;;;31.27;17.83;;;;;;;17.20;40.86;100470.69;3150917;28;20102;-68
2022/12/27 08:19:26;;;;;;;45.60;17.35;;;;;;;17.39;40.30;100469.53;3153532;28;20048;-69
2022/12/27 08:20:57;;;;;;;33.22;17.27;;;;;;;17.58;40.02;100474.50;3157543;28;20440;-69
2022/12/27 08:22:29;;;;;;;31.15;16.10;;;;;;;17.42;39.69;100424.56;3157342;28;20104;-69
2022/12/27 08:24:01;;;;;;;38.10;17.25;;;;;;;17.79;39.75;100467.03;3157200;28;20047;-68
2022/12/27 08:25:33;;;;;;;30.48;15.88;;;;;;;17.86;39.49;100471.78;3149214;28;20051;-69
2022/12/27 08:27:06;;;;;;;34.53;16.58;;;;;;;17.88;39.02;100472.53;3155088;28;20067;-69
2022/12/27 08:28:38;;;;;;;30.08;16.00;;;;;;;17.57;39.04;100406.94;3156955;28;20048;-69
2022/12/27 08:30:11;;;;;;;28.23;16.10;;;;;;;18.05;38.79;100462.69;3157284;28;20060;-69
2022/12/27 08:31:43;;;;;;;31.25;16.60;;;;;;;18.25;38.15;100456.97;3157340;28;20117;-70
2022/12/27 08:33:15;;;;;;;27.77;15.93;;;;;;;18.41;37.47;100456.75;3151712;28;20380;-69
2022/12/27 08:34:45;;;;;;;32.92;16.08;;;;;;;18.57;37.11;100453.91;3150419;28;20104;-70
2022/12/27 08:36:17;;;;;;;47.10;17.55;;;;;;;18.65;36.94;100448.97;3157369;28;20477;-69
2022/12/27 08:37:49;;;;;;;30.05;16.25;;;;;;;18.70;37.10;100440.75;3157423;28;20129;-69
2022/12/27 08:39:21;;;;;;;33.67;17.38;;;;;;;18.80;37.23;100440.03;3157213;28;20040;-69
2022/12/27 08:40:53;;;;;;;35.40;17.52;;;;;;;18.81;36.59;100425.91;3157196;28;20547;-70
2022/12/27 08:42:26;;;;;;;36.22;17.63;;;;;;;18.92;36.44;100448.06;3157431;28;20151;-70
2022/12/27 08:43:58;;;;;;;41.13;17.20;;;;;;;18.90;36.49;100434.97;3153519;28;20529;-68